createdAt,value
2023-02-18T00:01:43.341Z,30.10
2023-02-18T00:04:12.551Z,30.80
2023-02-18T00:06:42.106Z,31.90
2023-02-18T00:09:11.164Z,29.90
2023-02-18T00:11:39.735Z,34.70
2023-02-18T00:14:11.411Z,32.70
2023-02-18T00:16:41.656Z,28.50
2023-02-18T00:19:18.517Z,29.10
2023-02-18T00:21:48.297Z,27.80
2023-02-18T00:24:17.226Z,28.30
2023-02-18T00:26:46.709Z,31.00
2023-02-18T00:29:14.780Z,27.80
2023-02-18T00:31:45.916Z,32.30
2023-02-18T00:34:15.130Z,32.10
2023-02-18T00:36:43.447Z,26.30
2023-02-18T00:39:12.724Z,32.60
2023-02-18T00:41:42.218Z,33.50
2023-02-18T00:44:11.150Z,33.10
2023-02-18T00:46:39.719Z,34.40
2023-02-18T00:49:10.499Z,38.40
2023-02-18T00:51:39.163Z,33.40
2023-02-18T00:54:09.877Z,31.50
2023-02-18T00:56:38.877Z,33.20
2023-02-18T00:59:07.023Z,32.50
2023-02-18T01:01:36.624Z,36.70
2023-02-18T01:06:38.624Z,34.30
2023-02-18T01:09:06.790Z,30.70
2023-02-18T01:11:35.094Z,35.10
2023-02-18T01:14:03.890Z,33.80
2023-02-18T01:16:32.954Z,35.30
2023-02-18T01:19:01.151Z,36.50
2023-02-18T01:21:29.264Z,37.00
2023-02-18T01:23:58.582Z,34.10
2023-02-18T01:26:27.008Z,33.20
2023-02-18T01:28:56.763Z,36.00
2023-02-18T01:31:27.007Z,36.20
2023-02-18T01:33:55.153Z,31.70
2023-02-18T01:36:23.293Z,35.20
2023-02-18T01:38:51.547Z,34.20
2023-02-18T01:41:20.236Z,34.50
2023-02-18T01:43:49.790Z,33.40
2023-02-18T01:46:19.853Z,32.80
2023-02-18T01:48:52.402Z,33.30
2023-02-18T01:51:24.552Z,33.40
2023-02-18T01:53:56.227Z,32.10
2023-02-18T01:56:29.049Z,37.20
2023-02-18T01:58:58.638Z,26.50
2023-02-18T02:01:26.822Z,36.90
2023-02-18T02:03:55.352Z,35.90
2023-02-18T02:06:23.738Z,34.60
2023-02-18T02:08:53.946Z,28.60
2023-02-18T02:11:41.298Z,33.90
2023-02-18T02:14:35.306Z,36.20
2023-02-18T02:17:38.190Z,30.70
2023-02-18T02:20:19.506Z,31.30
2023-02-18T02:23:06.184Z,32.20
2023-02-18T02:25:53.154Z,32.00
2023-02-18T02:28:53.676Z,31.90
2023-02-18T02:31:24.439Z,29.70
2023-02-18T02:33:56.093Z,32.70
2023-02-18T02:36:28.350Z,29.80
2023-02-18T02:39:10.198Z,35.60
2023-02-18T02:42:13.859Z,34.30
2023-02-18T02:45:13.766Z,31.90
2023-02-18T02:48:12.100Z,29.80
2023-02-18T02:51:02.338Z,32.20
2023-02-18T02:53:32.123Z,26.00
2023-02-18T02:56:00.261Z,28.80
2023-02-18T02:58:28.761Z,24.80
2023-02-18T03:01:02.412Z,28.80
2023-02-18T03:03:57.505Z,32.40
2023-02-18T03:06:38.654Z,30.10
2023-02-18T03:09:42.574Z,26.90
2023-02-18T03:12:26.152Z,28.80
2023-02-18T03:15:04.896Z,30.00
2023-02-18T03:17:41.513Z,29.10
2023-02-18T03:20:26.072Z,28.80
2023-02-18T03:22:54.367Z,29.30
2023-02-18T03:25:22.878Z,23.50
2023-02-18T03:27:54.484Z,25.20
2023-02-18T03:30:29.378Z,26.50
2023-02-18T03:33:00.644Z,27.30
2023-02-18T03:35:29.424Z,31.60
2023-02-18T03:38:17.859Z,28.30
2023-02-18T03:40:46.052Z,29.70
2023-02-18T03:43:15.443Z,29.10
2023-02-18T03:45:44.103Z,30.00
2023-02-18T03:48:13.455Z,31.10
2023-02-18T03:50:42.516Z,30.20
2023-02-18T03:53:13.143Z,27.50
2023-02-18T03:55:42.685Z,31.60
2023-02-18T03:58:11.361Z,32.50
2023-02-18T04:00:40.336Z,28.70
2023-02-18T04:03:09.785Z,30.40
2023-02-18T04:05:39.629Z,23.90
2023-02-18T04:08:07.752Z,27.60
2023-02-18T04:10:38.037Z,29.30
2023-02-18T04:13:06.412Z,28.60
2023-02-18T04:15:35.228Z,27.00
2023-02-18T04:18:03.287Z,28.20
2023-02-18T04:20:31.621Z,26.20
2023-02-18T04:22:59.863Z,27.00
2023-02-18T04:25:27.876Z,28.00
2023-02-18T04:27:57.355Z,26.90
2023-02-18T04:30:25.537Z,29.20
2023-02-18T04:32:55.093Z,25.60
2023-02-18T04:35:23.225Z,28.10
2023-02-18T04:37:52.683Z,26.00
2023-02-18T04:40:20.856Z,28.80
2023-02-18T04:42:48.802Z,26.30
2023-02-18T04:45:17.567Z,25.50
2023-02-18T04:47:45.727Z,22.10
2023-02-18T04:50:14.025Z,24.40
2023-02-18T04:52:43.274Z,25.90
2023-02-18T04:55:12.377Z,24.50
2023-02-18T04:57:41.027Z,28.00
2023-02-18T05:00:09.926Z,24.30
2023-02-18T05:02:38.241Z,23.70
2023-02-18T05:05:08.025Z,24.10
2023-02-18T05:07:36.798Z,21.40
2023-02-18T05:10:05.217Z,23.40
2023-02-18T05:20:53.679Z,23.90
2023-02-18T05:23:22.198Z,25.00
2023-02-18T05:25:50.330Z,24.00
2023-02-18T05:28:20.002Z,22.60
2023-02-18T05:30:48.399Z,27.20
2023-02-18T05:33:16.500Z,25.50
2023-02-18T05:35:44.487Z,25.00
2023-02-18T05:38:12.610Z,24.90
2023-02-18T05:40:40.600Z,24.50
2023-02-18T05:43:08.904Z,24.20
2023-02-18T05:45:38.438Z,25.10
2023-02-18T05:48:06.466Z,23.10
2023-02-18T05:50:34.594Z,25.50
2023-02-18T05:53:02.645Z,24.20
2023-02-18T05:55:30.665Z,24.90
2023-02-18T05:57:59.560Z,25.60
2023-02-18T06:00:29.956Z,27.00
2023-02-18T06:02:59.205Z,26.40
2023-02-18T06:05:27.525Z,26.40
2023-02-18T06:07:56.858Z,26.90
2023-02-18T06:10:25.435Z,30.60
2023-02-18T06:12:53.951Z,29.10
2023-02-18T06:15:22.244Z,25.50
2023-02-18T06:17:50.987Z,24.40
2023-02-18T06:20:19.035Z,25.30
2023-02-18T06:22:47.252Z,22.00
2023-02-18T06:25:15.292Z,26.40
2023-02-18T06:27:45.036Z,27.60
2023-02-18T06:30:13.394Z,21.30
2023-02-18T06:32:41.610Z,25.40
2023-02-18T06:35:09.635Z,25.00
2023-02-18T06:37:38.661Z,25.70
2023-02-18T06:40:08.330Z,24.00
2023-02-18T06:42:36.891Z,28.80
2023-02-18T06:45:08.318Z,24.20
2023-02-18T06:47:36.291Z,24.00
2023-02-18T06:50:04.789Z,21.40
2023-02-18T06:52:34.585Z,23.20
2023-02-18T06:55:02.667Z,25.10
2023-02-18T06:57:31.449Z,27.70
2023-02-18T09:03:46.062Z,4.20
2023-02-18T09:06:14.353Z,4.00
2023-02-18T09:08:45.212Z,3.30
2023-02-18T09:11:18.378Z,3.40
2023-02-18T09:13:47.434Z,2.90
2023-02-18T09:16:20.079Z,3.50
2023-02-18T09:18:48.791Z,2.90
2023-02-18T09:21:20.888Z,3.10
2023-02-18T09:23:49.686Z,2.30
2023-02-18T09:26:21.427Z,2.70
2023-02-18T09:28:50.402Z,2.50
2023-02-18T09:31:21.823Z,3.20
2023-02-18T09:33:52.533Z,3.50
2023-02-18T09:36:21.113Z,5.40
2023-02-18T09:38:49.409Z,3.20
2023-02-18T09:41:18.132Z,3.70
2023-02-18T09:43:48.490Z,2.90
2023-02-18T09:46:30.632Z,3.20
2023-02-18T09:49:04.151Z,3.60
2023-02-18T09:51:34.682Z,3.00
2023-02-18T09:54:03.069Z,4.10
2023-02-18T09:56:36.378Z,2.50
2023-02-18T09:59:06.905Z,2.60
2023-02-18T10:01:38.031Z,3.60
2023-02-18T10:04:13.698Z,2.70
2023-02-18T10:06:42.238Z,3.20
2023-02-18T10:09:31.876Z,3.20
2023-02-18T10:12:08.445Z,3.00
2023-02-18T10:14:39.782Z,3.20
2023-02-18T10:17:09.578Z,3.00
2023-02-18T10:19:38.949Z,3.10
2023-02-18T10:22:08.210Z,3.80
2023-02-18T10:24:50.784Z,3.50
2023-02-18T10:27:33.938Z,2.90
2023-02-18T10:30:23.042Z,3.90
2023-02-18T10:33:23.109Z,3.60
2023-02-18T10:35:54.352Z,2.80
2023-02-18T10:38:33.381Z,3.10
2023-02-18T10:41:15.078Z,2.50
2023-02-18T10:44:18.014Z,3.10
2023-02-18T10:46:55.622Z,2.80
2023-02-18T10:49:56.932Z,3.10
2023-02-18T10:52:30.251Z,3.30
2023-02-18T10:55:10.905Z,3.60
2023-02-18T10:57:50.676Z,4.70
2023-02-18T11:00:24.169Z,3.70
2023-02-18T11:03:24.049Z,2.80
2023-02-18T11:05:56.970Z,2.70
2023-02-18T11:08:33.372Z,2.70
2023-02-18T11:11:01.644Z,2.50
2023-02-18T11:13:32.180Z,3.50
2023-02-18T11:16:07.037Z,2.60
2023-02-18T11:18:37.505Z,2.60
2023-02-18T11:21:31.924Z,2.90
2023-02-18T11:24:10.074Z,5.20
2023-02-18T11:26:39.335Z,2.50
2023-02-18T11:29:12.900Z,2.70
2023-02-18T11:31:52.361Z,2.90
2023-02-18T11:34:22.704Z,2.50
2023-02-18T11:36:51.461Z,2.80
2023-02-18T11:39:26.977Z,3.40
2023-02-18T11:41:58.137Z,2.80
2023-02-18T11:44:35.109Z,2.90
2023-02-18T11:47:09.493Z,4.10
2023-02-18T11:49:37.724Z,3.60
2023-02-18T11:52:27.556Z,3.20
2023-02-18T11:55:06.909Z,2.60
2023-02-18T11:57:37.714Z,2.50
2023-02-18T12:00:21.589Z,3.00
2023-02-18T12:02:50.500Z,2.80
2023-02-18T12:05:22.388Z,2.80
2023-02-18T12:07:58.048Z,2.70
2023-02-18T12:10:56.072Z,2.90
2023-02-18T12:13:28.350Z,2.30
2023-02-18T12:16:09.714Z,3.10
2023-02-18T12:19:19.841Z,2.60
2023-02-18T12:22:09.798Z,2.30
2023-02-18T12:24:53.633Z,2.20
2023-02-18T12:27:41.326Z,2.30
2023-02-18T12:30:45.230Z,2.30
2023-02-18T12:36:09.948Z,2.60
2023-02-18T12:38:44.444Z,2.50
2023-02-18T12:41:15.352Z,3.60
2023-02-18T12:43:51.537Z,2.70
2023-02-18T12:46:19.789Z,3.00
2023-02-18T12:49:06.620Z,2.40
2023-02-18T12:51:46.707Z,2.50
2023-02-18T12:54:21.125Z,2.90
2023-02-18T12:57:19.927Z,3.90
2023-02-18T13:00:36.276Z,2.80
2023-02-18T13:03:34.007Z,3.40
2023-02-18T13:06:55.299Z,2.80
2023-02-18T13:09:44.749Z,3.50
2023-02-18T13:12:54.996Z,3.20
2023-02-18T13:15:37.709Z,2.90
2023-02-18T13:18:14.017Z,2.80
2023-02-18T13:20:44.672Z,7.40
2023-02-18T13:23:18.358Z,3.00
2023-02-18T13:25:46.530Z,3.20
2023-02-18T13:29:12.331Z,3.00
2023-02-18T13:31:52.842Z,2.70
2023-02-18T13:34:49.891Z,2.40
2023-02-18T13:37:23.154Z,2.60
2023-02-18T13:39:57.073Z,3.00
2023-02-18T13:42:31.157Z,2.20
2023-02-18T13:44:59.978Z,2.90
2023-02-18T13:47:38.334Z,3.10
2023-02-18T13:50:33.552Z,2.90
2023-02-18T13:53:08.001Z,2.40
2023-02-18T13:56:07.580Z,2.60
2023-02-18T13:58:42.751Z,3.00
2023-02-18T14:01:11.753Z,3.60
2023-02-18T14:03:42.803Z,3.80
2023-02-18T14:06:41.300Z,2.60
2023-02-18T14:09:14.019Z,2.20
2023-02-18T14:11:49.631Z,2.60
2023-02-18T14:14:26.913Z,2.70
2023-02-18T14:17:15.250Z,4.20
2023-02-18T14:19:44.023Z,3.60
2023-02-18T14:22:45.363Z,2.90
2023-02-18T14:25:22.649Z,3.00
2023-02-18T14:27:54.781Z,3.90
2023-02-18T14:30:28.613Z,2.80
2023-02-18T14:32:59.545Z,3.10
2023-02-18T14:35:43.383Z,2.30
2023-02-18T14:38:17.826Z,2.20
2023-02-18T14:40:57.479Z,2.70
2023-02-18T14:43:46.837Z,2.50
2023-02-18T14:46:20.819Z,2.50
2023-02-18T14:49:08.348Z,2.60
2023-02-18T14:51:37.706Z,2.60
2023-02-18T14:54:06.883Z,2.50
2023-02-18T14:56:38.813Z,3.00
2023-02-18T14:59:08.963Z,2.40
2023-02-18T15:01:39.387Z,2.30
2023-02-18T15:04:12.422Z,2.40
2023-02-18T15:09:27.704Z,2.60
2023-02-18T15:12:02.536Z,2.60
2023-02-18T15:14:32.297Z,2.70
2023-02-18T15:17:07.712Z,5.60
2023-02-18T15:19:43.181Z,2.50
2023-02-18T15:22:19.265Z,3.30
2023-02-18T15:24:48.380Z,3.10
2023-02-18T15:27:26.887Z,3.00
2023-02-18T15:30:29.357Z,3.40
2023-02-18T15:32:59.134Z,3.50
2023-02-18T15:35:31.777Z,3.50
2023-02-18T15:38:00.714Z,3.00
2023-02-18T15:40:31.500Z,2.80
2023-02-18T15:43:00.820Z,3.30
2023-02-18T15:45:37.200Z,2.80
2023-02-18T15:48:06.242Z,3.50
2023-02-18T15:50:38.832Z,3.30
2023-02-18T15:53:11.017Z,3.20
2023-02-18T15:55:43.299Z,2.70
2023-02-18T15:58:16.398Z,3.60
2023-02-18T16:00:58.301Z,2.20
2023-02-18T16:03:33.037Z,3.10
2023-02-18T16:06:12.825Z,5.50
2023-02-18T16:08:41.310Z,3.00
2023-02-18T16:11:11.305Z,3.00
2023-02-18T16:13:46.193Z,2.80
2023-02-18T16:16:34.965Z,3.20
2023-02-18T16:19:04.822Z,3.30
2023-02-18T16:21:39.536Z,3.00
2023-02-18T16:24:27.172Z,3.00
2023-02-18T16:26:59.258Z,4.10
2023-02-18T16:29:35.674Z,3.50
2023-02-18T16:32:03.911Z,3.20
2023-02-18T16:34:32.284Z,2.90
2023-02-18T16:37:19.268Z,3.50
2023-02-18T16:39:49.878Z,3.90
2023-02-18T16:42:19.228Z,3.50
2023-02-18T16:44:48.239Z,4.10
2023-02-18T16:47:17.614Z,3.80
2023-02-18T16:49:47.267Z,3.30
2023-02-18T16:52:18.881Z,3.50
2023-02-18T16:54:49.443Z,3.40
2023-02-18T16:57:19.507Z,3.40
2023-02-18T16:59:48.786Z,3.20
2023-02-18T17:02:21.255Z,3.70
2023-02-18T17:04:49.958Z,4.70
2023-02-18T17:07:18.713Z,3.40
2023-02-18T17:09:47.806Z,3.60
2023-02-18T17:12:16.544Z,3.60
2023-02-18T17:14:44.615Z,3.30
2023-02-18T17:17:14.077Z,4.40
2023-02-18T17:19:42.102Z,3.50
2023-02-18T17:22:13.146Z,4.40
2023-02-18T17:24:41.168Z,3.70
2023-02-18T17:27:11.162Z,4.00
2023-02-18T17:29:39.632Z,3.20
2023-02-18T17:32:11.616Z,4.10
2023-02-18T17:34:41.156Z,4.00
2023-02-18T17:37:12.920Z,4.20
2023-02-18T17:39:41.482Z,3.80
2023-02-18T17:42:15.365Z,3.00
2023-02-18T17:44:45.708Z,3.70
2023-02-18T17:47:13.861Z,3.90
2023-02-18T17:49:42.447Z,4.10
2023-02-18T17:52:29.496Z,3.80
2023-02-18T17:54:58.353Z,3.70
2023-02-18T17:57:26.572Z,4.70
2023-02-18T17:59:57.420Z,3.20
2023-02-18T18:02:29.599Z,3.10
2023-02-18T18:04:57.708Z,3.50
2023-02-18T18:07:25.834Z,4.70
2023-02-18T18:09:55.225Z,4.20
2023-02-18T18:12:23.385Z,4.40
2023-02-18T18:14:52.942Z,4.40
2023-02-18T18:17:21.709Z,3.60
2023-02-18T18:19:50.470Z,3.40
2023-02-18T18:22:19.113Z,5.10
2023-02-18T18:24:47.203Z,5.60
2023-02-18T18:27:15.245Z,4.30
2023-02-18T18:29:43.329Z,4.20
2023-02-18T18:32:11.448Z,4.20
2023-02-18T18:34:40.138Z,3.50
2023-02-18T18:37:08.558Z,3.70
2023-02-18T18:39:37.442Z,3.80
2023-02-18T18:42:07.038Z,4.40
2023-02-18T18:44:35.530Z,3.40
2023-02-18T18:47:04.592Z,4.30
2023-02-18T18:49:35.514Z,3.40
2023-02-18T18:52:04.228Z,3.60
2023-02-18T18:54:32.305Z,5.30
2023-02-18T18:57:01.145Z,4.00
2023-02-18T18:59:30.703Z,3.80
2023-02-18T19:01:59.367Z,4.10
2023-02-18T19:04:27.834Z,4.40
2023-02-18T19:06:56.329Z,3.50
2023-02-18T19:09:24.409Z,3.20
2023-02-18T19:11:52.481Z,5.20
2023-02-18T19:14:22.155Z,4.50
2023-02-18T19:16:56.372Z,3.30
2023-02-18T19:19:25.168Z,3.60
2023-02-18T19:21:53.513Z,3.90
2023-02-18T19:24:22.079Z,3.10
2023-02-18T19:26:50.703Z,3.70
2023-02-18T19:29:20.757Z,3.80
2023-02-18T19:31:50.515Z,3.50
2023-02-18T19:34:24.498Z,3.80
2023-02-18T19:36:54.082Z,3.70
2023-02-18T19:39:23.176Z,3.50
2023-02-18T19:41:51.319Z,3.40
2023-02-18T19:44:20.153Z,3.60
2023-02-18T19:46:48.336Z,3.90
2023-02-18T19:49:16.346Z,4.00
2023-02-18T19:51:44.573Z,3.10
2023-02-18T19:54:12.760Z,3.40
2023-02-18T19:56:40.884Z,4.20
2023-02-18T19:59:09.009Z,4.00
2023-02-18T20:01:37.387Z,4.30
2023-02-18T20:04:05.723Z,3.30
2023-02-18T20:06:34.005Z,4.00
2023-02-18T20:09:02.810Z,3.90
2023-02-18T20:11:33.979Z,3.40
2023-02-18T20:14:02.589Z,4.10
2023-02-18T20:16:30.610Z,3.80
2023-02-18T20:18:59.794Z,3.80
2023-02-18T20:21:28.201Z,3.90
2023-02-18T20:23:56.264Z,3.90
2023-02-18T20:26:25.048Z,3.70
2023-02-18T20:28:53.037Z,3.00
2023-02-18T20:31:21.078Z,4.30
2023-02-18T20:33:49.180Z,4.30
2023-02-18T20:36:17.288Z,3.60
2023-02-18T20:38:45.323Z,3.20
2023-02-18T20:41:14.579Z,4.20
2023-02-18T20:43:43.743Z,4.20
2023-02-18T20:46:14.019Z,4.00
2023-02-18T20:48:42.285Z,3.70
2023-02-18T20:51:13.591Z,3.70
2023-02-18T20:53:43.516Z,4.00
2023-02-18T20:56:11.741Z,3.80
2023-02-18T20:58:41.434Z,3.90
2023-02-18T21:01:11.463Z,3.70
2023-02-18T21:03:42.750Z,3.30
2023-02-18T21:06:13.968Z,3.40
2023-02-18T21:08:44.138Z,3.40
2023-02-18T21:11:20.231Z,3.40
2023-02-18T21:13:49.056Z,3.80
2023-02-18T21:16:17.730Z,3.50
2023-02-18T21:18:46.002Z,6.90
2023-02-18T21:21:14.884Z,3.50
2023-02-18T21:23:46.931Z,4.60
2023-02-18T21:26:16.975Z,3.90
2023-02-18T21:28:48.878Z,4.70
2023-02-18T21:31:19.109Z,4.00
2023-02-18T21:33:47.254Z,3.10
2023-02-18T21:36:15.869Z,3.20
2023-02-18T21:38:44.798Z,3.60
2023-02-18T21:41:13.019Z,5.00
2023-02-18T21:43:43.951Z,3.80
2023-02-18T21:46:32.814Z,5.10
2023-02-18T21:49:07.049Z,3.80
2023-02-18T21:52:19.137Z,4.20
2023-02-18T21:54:48.634Z,4.40
2023-02-18T21:57:18.940Z,3.70
2023-02-18T21:59:47.708Z,4.30
2023-02-18T22:02:23.616Z,3.60
2023-02-18T22:04:52.722Z,4.20
2023-02-18T22:07:23.747Z,3.30
2023-02-18T22:09:53.793Z,5.00
2023-02-18T22:12:22.742Z,4.60
2023-02-18T22:14:51.261Z,4.10
2023-02-18T22:17:19.416Z,5.50
2023-02-18T22:19:50.020Z,6.50
2023-02-18T22:22:18.493Z,4.90
2023-02-18T22:24:46.467Z,6.10
2023-02-18T22:27:14.691Z,5.20
2023-02-18T22:29:44.088Z,4.90
2023-02-18T22:32:12.417Z,5.40
2023-02-18T22:34:40.529Z,5.60
2023-02-18T22:37:09.212Z,5.90
2023-02-18T22:39:37.211Z,4.50
2023-02-18T22:42:05.360Z,4.80
2023-02-18T22:44:33.944Z,4.70
2023-02-18T22:47:01.889Z,5.00
2023-02-18T22:49:30.265Z,4.30
2023-02-18T22:51:59.204Z,6.40
2023-02-18T22:54:27.415Z,5.10
2023-02-18T22:56:55.485Z,5.10
2023-02-18T22:59:23.901Z,5.00
2023-02-18T23:01:53.228Z,5.10
2023-02-18T23:04:21.846Z,4.40
2023-02-18T23:06:50.083Z,4.00
2023-02-18T23:09:23.290Z,5.30
2023-02-18T23:14:22.956Z,4.30
2023-02-18T23:17:12.869Z,4.80
2023-02-18T23:19:42.424Z,4.40
2023-02-18T23:22:11.360Z,4.00
2023-02-18T23:24:41.363Z,3.90
2023-02-18T23:27:10.323Z,3.90
2023-02-18T23:29:38.588Z,5.50
2023-02-18T23:32:06.956Z,3.40
2023-02-18T23:34:36.012Z,3.90
2023-02-18T23:37:05.936Z,5.00
2023-02-18T23:39:34.779Z,3.60
2023-02-18T23:42:02.984Z,4.00
2023-02-18T23:44:31.221Z,4.70
2023-02-18T23:47:00.304Z,3.90
2023-02-18T23:49:29.370Z,4.60
2023-02-18T23:51:58.143Z,4.20
2023-02-18T23:54:26.843Z,4.00
2023-02-18T23:56:55.900Z,5.30
2023-02-18T23:59:24.888Z,3.60
